Time;durP1;ratioP1;P1;durP2;ratioP2;P2;SDS_P1;SDS_P2;PMS_P1;PMS_P2;Temp;Humidity;BMP_temperature;BMP_pressure;BME280_temperature;BME280_humidity;BME280_pressure;Samples;Min_cycle;Max_cycle;Signal;HPM_P1;HPM_P2
2021/04/02 00:01:45;;;;;;;9.27;3.83;;;;;;;;;;5027367;28;20213;-70
2021/04/02 00:04:10;;;;;;;19.17;4.10;;;;;;;;;;5020944;28;20251;-70
2021/04/02 00:06:35;;;;;;;15.13;4.23;;;;;;;;;;5028615;28;20186;-69
2021/04/02 00:09:01;;;;;;;18.43;3.73;;;;;;;;;;5029721;28;20642;-68
2021/04/02 00:11:26;;;;;;;11.80;3.80;;;;;;;;;;5015105;28;20193;-69
2021/04/02 00:13:52;;;;;;;11.17;3.53;;;;;;;;;;5028738;28;20617;-70
2021/04/02 00:16:19;;;;;;;14.63;3.67;;;;;;;;;;5019324;28;20209;-69
2021/04/02 00:18:45;;;;;;;12.17;3.83;;;;;;;;;;5029073;28;20296;-69
2021/04/02 00:21:12;;;;;;;13.80;4.27;;;;;;;;;;5017455;28;20210;-69
2021/04/02 00:23:38;;;;;;;16.87;4.10;;;;;;;;;;5027463;28;20209;-69
2021/04/02 00:26:15;;;;;;;15.67;3.63;;;;;;;;;;5019507;28;20322;-69
2021/04/02 00:28:41;;;;;;;12.73;3.83;;;;;;;;;;5025977;28;20185;-69
2021/04/02 00:31:06;;;;;;;17.33;4.30;;;;;;;;;;5018778;28;20259;-69
2021/04/02 00:33:33;;;;;;;17.13;5.37;;;;;;;;;;5028805;28;20184;-69
2021/04/02 00:35:59;;;;;;;13.07;4.00;;;;;;;;;;5019412;28;20410;-68
2021/04/02 00:38:24;;;;;;;12.67;4.07;;;;;;;;;;5026904;28;20272;-68
2021/04/02 00:40:53;;;;;;;13.77;4.23;;;;;;;;;;5023397;28;20756;-69
2021/04/02 00:43:25;;;;;;;12.50;4.33;;;;;;;;;;5026241;28;20194;-70
2021/04/02 00:45:51;;;;;;;12.73;3.90;;;;;;;;;;5029147;28;20236;-70
2021/04/02 00:48:16;;;;;;;13.23;4.20;;;;;;;;;;5018503;28;20228;-70
2021/04/02 00:50:47;;;;;;;19.20;5.07;;;;;;;;;;5028393;28;20185;-70
2021/04/02 00:53:13;;;;;;;11.73;4.20;;;;;;;;;;5017660;28;21378;-69
2021/04/02 00:55:40;;;;;;;13.90;4.43;;;;;;;;;;5028355;28;21420;-69
2021/04/02 00:58:08;;;;;;;13.93;4.47;;;;;;;;;;5018333;28;20264;-69
2021/04/02 01:00:34;;;;;;;14.80;4.30;;;;;;;;;;5027442;28;20579;-69
2021/04/02 01:02:59;;;;;;;15.63;4.50;;;;;;;;;;5015932;28;20216;-69
2021/04/02 01:05:30;;;;;;;15.73;4.67;;;;;;;;;;5028236;28;20592;-69
2021/04/02 01:08:05;;;;;;;12.77;4.57;;;;;;;;;;5019472;28;21001;-69
2021/04/02 01:10:33;;;;;;;11.80;4.43;;;;;;;;;;5028716;28;20208;-69
2021/04/02 01:13:04;;;;;;;17.53;4.67;;;;;;;;;;5016388;28;20202;-68
2021/04/02 01:15:36;;;;;;;15.83;4.20;;;;;;;;;;5026397;28;20541;-68
2021/04/02 01:18:08;;;;;;;17.77;4.27;;;;;;;;;;5017576;28;20193;-69
2021/04/02 01:20:35;;;;;;;14.27;4.47;;;;;;;;;;5026788;28;20639;-69
2021/04/02 01:23:08;;;;;;;14.43;4.87;;;;;;;;;;5027623;28;21282;-69
2021/04/02 01:26:02;;;;;;;11.47;4.47;;;;;;;;;;5026075;28;20193;-69
2021/04/02 01:28:53;;;;;;;10.80;4.23;;;;;;;;;;5021240;28;20239;-69
2021/04/02 01:31:18;;;;;;;12.30;4.17;;;;;;;;;;5027392;28;20281;-69
2021/04/02 01:33:44;;;;;;;11.70;4.37;;;;;;;;;;5020677;28;20252;-70
2021/04/02 01:36:12;;;;;;;18.10;4.37;;;;;;;;;;5024470;28;20501;-70
2021/04/02 01:38:41;;;;;;;13.70;4.70;;;;;;;;;;5025565;28;20601;-69
2021/04/02 01:41:09;;;;;;;11.13;4.10;;;;;;;;;;5017138;28;20217;-69
2021/04/02 01:43:39;;;;;;;12.27;4.00;;;;;;;;;;5032261;28;20186;-69
2021/04/02 01:46:07;;;;;;;12.03;4.60;;;;;;;;;;5022293;28;20263;-69
2021/04/02 01:48:33;;;;;;;10.90;3.50;;;;;;;;;;5029413;28;20732;-69
2021/04/02 01:51:00;;;;;;;15.50;3.97;;;;;;;;;;5025611;28;20234;-69
2021/04/02 01:53:30;;;;;;;21.10;4.83;;;;;;;;;;5031358;28;20186;-69
2021/04/02 01:55:56;;;;;;;12.40;4.13;;;;;;;;;;5021401;28;20213;-69
2021/04/02 01:58:22;;;;;;;13.77;3.63;;;;;;;;;;5030426;28;20197;-69
2021/04/02 02:00:54;;;;;;;10.33;4.60;;;;;;;;;;5023185;28;20202;-68
2021/04/02 02:03:22;;;;;;;12.30;4.23;;;;;;;;;;5029986;28;20217;-69
2021/04/02 02:05:48;;;;;;;16.43;4.87;;;;;;;;;;5021808;28;20190;-69
2021/04/02 02:08:17;;;;;;;17.50;4.77;;;;;;;;;;5030260;28;20255;-69
2021/04/02 02:10:44;;;;;;;11.17;4.47;;;;;;;;;;5025442;28;20197;-69
2021/04/02 02:13:11;;;;;;;13.07;3.70;;;;;;;;;;5029010;28;20179;-69
2021/04/02 02:15:39;;;;;;;13.90;3.80;;;;;;;;;;5030519;28;20327;-69
2021/04/02 02:18:11;;;;;;;12.13;3.67;;;;;;;;;;5020475;28;20888;-69
2021/04/02 02:20:41;;;;;;;11.83;3.67;;;;;;;;;;5029507;28;20724;-69
2021/04/02 02:23:08;;;;;;;14.83;3.80;;;;;;;;;;5022407;28;20684;-69
2021/04/02 02:25:34;;;;;;;9.43;3.67;;;;;;;;;;5030980;28;20186;-69
2021/04/02 02:27:59;;;;;;;13.83;4.13;;;;;;;;;;5021598;28;20227;-69
2021/04/02 02:30:27;;;;;;;13.50;4.00;;;;;;;;;;5027618;28;20190;-69
2021/04/02 02:32:53;;;;;;;13.50;4.00;;;;;;;;;;5021343;28;20513;-68
2021/04/02 02:35:19;;;;;;;9.93;3.63;;;;;;;;;;5029798;28;20218;-69
2021/04/02 02:37:46;;;;;;;9.73;3.23;;;;;;;;;;5020662;28;20194;-69
2021/04/02 02:40:15;;;;;;;10.67;4.13;;;;;;;;;;5028497;28;20737;-69
2021/04/02 02:42:41;;;;;;;12.17;3.57;;;;;;;;;;5021935;28;20344;-69
2021/04/02 02:45:09;;;;;;;11.10;3.83;;;;;;;;;;5022252;28;20275;-69
2021/04/02 02:47:34;;;;;;;12.30;3.60;;;;;;;;;;5027534;28;20194;-69
2021/04/02 02:50:01;;;;;;;19.43;3.67;;;;;;;;;;5022804;28;20229;-69
2021/04/02 02:52:27;;;;;;;9.23;3.30;;;;;;;;;;5030371;28;20719;-69
2021/04/02 02:54:55;;;;;;;10.80;3.57;;;;;;;;;;5021362;28;20266;-69
2021/04/02 02:57:21;;;;;;;9.03;3.37;;;;;;;;;;5029929;28;20189;-69
2021/04/02 02:59:49;;;;;;;9.97;3.23;;;;;;;;;;5020906;28;20205;-69
2021/04/02 03:02:17;;;;;;;10.97;3.10;;;;;;;;;;5027563;28;20662;-69
2021/04/02 03:04:43;;;;;;;9.20;3.80;;;;;;;;;;5021844;28;20358;-69
2021/04/02 03:07:10;;;;;;;9.97;3.30;;;;;;;;;;5028999;28;20185;-69
2021/04/02 03:09:39;;;;;;;13.47;3.70;;;;;;;;;;5019527;28;20194;-69
2021/04/02 03:12:06;;;;;;;10.03;3.77;;;;;;;;;;5026285;28;20270;-69
2021/04/02 03:14:33;;;;;;;13.07;3.60;;;;;;;;;;5019819;28;20223;-69
2021/04/02 03:17:00;;;;;;;12.80;3.87;;;;;;;;;;5028145;28;20713;-69
2021/04/02 03:19:26;;;;;;;23.07;4.73;;;;;;;;;;5022878;28;20554;-68
2021/04/02 03:21:53;;;;;;;16.27;3.90;;;;;;;;;;5026824;28;20495;-69
2021/04/02 03:24:19;;;;;;;14.30;5.00;;;;;;;;;;5029649;28;20201;-69
2021/04/02 03:26:50;;;;;;;12.97;4.07;;;;;;;;;;5019551;28;20253;-69
2021/04/02 03:29:16;;;;;;;15.73;4.63;;;;;;;;;;5030076;28;20178;-69
2021/04/02 03:31:44;;;;;;;11.43;4.30;;;;;;;;;;5016421;28;20201;-69
2021/04/02 03:34:12;;;;;;;16.07;4.00;;;;;;;;;;5029273;28;20269;-69
2021/04/02 03:36:40;;;;;;;16.73;4.97;;;;;;;;;;5020781;28;20204;-69
2021/04/02 03:39:10;;;;;;;16.03;5.00;;;;;;;;;;5027903;28;20190;-69
2021/04/02 03:41:38;;;;;;;13.03;4.23;;;;;;;;;;5018616;28;20584;-69
2021/04/02 03:44:06;;;;;;;11.60;4.40;;;;;;;;;;5027054;28;20186;-69
2021/04/02 03:46:34;;;;;;;14.60;4.50;;;;;;;;;;5018622;28;20193;-69
2021/04/02 03:49:02;;;;;;;13.77;5.00;;;;;;;;;;5025750;28;20240;-69
2021/04/02 03:51:29;;;;;;;19.27;4.83;;;;;;;;;;5018831;28;20190;-69
2021/04/02 03:53:58;;;;;;;18.60;4.63;;;;;;;;;;5028630;28;20239;-69
2021/04/02 03:56:27;;;;;;;9.00;4.23;;;;;;;;;;5025069;28;20186;-69
2021/04/02 03:58:55;;;;;;;10.87;4.17;;;;;;;;;;5025979;28;20223;-69
2021/04/02 04:01:23;;;;;;;18.73;4.57;;;;;;;;;;5026897;28;20216;-69
2021/04/02 04:03:50;;;;;;;17.43;5.17;;;;;;;;;;5021898;28;20739;-68
2021/04/02 04:06:19;;;;;;;13.80;4.70;;;;;;;;;;5023491;28;20189;-70
2021/04/02 04:08:45;;;;;;;16.00;5.30;;;;;;;;;;5022756;28;20194;-70
2021/04/02 04:11:13;;;;;;;15.93;5.07;;;;;;;;;;5026709;28;20236;-69
2021/04/02 04:13:41;;;;;;;14.20;4.37;;;;;;;;;;5017264;28;20204;-70
2021/04/02 04:16:08;;;;;;;17.17;5.03;;;;;;;;;;5024447;28;20246;-70
2021/04/02 04:18:35;;;;;;;18.53;5.33;;;;;;;;;;5013026;28;20298;-68
2021/04/02 04:21:04;;;;;;;16.37;4.67;;;;;;;;;;5020008;28;20750;-68
2021/04/02 04:23:30;;;;;;;14.07;4.90;;;;;;;;;;5012201;28;20216;-69
2021/04/02 04:25:59;;;;;;;18.67;4.97;;;;;;;;;;5021313;28;20530;-69
2021/04/02 04:28:25;;;;;;;10.63;4.30;;;;;;;;;;5016247;28;21602;-69
2021/04/02 04:30:53;;;;;;;13.73;5.03;;;;;;;;;;5021940;28;20236;-70
2021/04/02 04:33:20;;;;;;;12.93;4.60;;;;;;;;;;5027046;28;20185;-69
2021/04/02 04:35:46;;;;;;;16.33;4.70;;;;;;;;;;5017743;28;20550;-70
2021/04/02 04:38:12;;;;;;;11.80;4.43;;;;;;;;;;5025376;28;20182;-70
2021/04/02 04:40:38;;;;;;;14.93;5.27;;;;;;;;;;5017257;28;20574;-70
2021/04/02 04:43:07;;;;;;;19.10;5.07;;;;;;;;;;5025870;28;20190;-69
2021/04/02 04:45:33;;;;;;;21.60;4.80;;;;;;;;;;5016910;28;20193;-68
2021/04/02 04:47:58;;;;;;;19.60;4.93;;;;;;;;;;5026810;28;20664;-70
2021/04/02 04:50:25;;;;;;;13.97;4.83;;;;;;;;;;5012203;28;20276;-70
2021/04/02 04:52:59;;;;;;;15.63;5.10;;;;;;;;;;5022913;28;20186;-70
2021/04/02 04:55:25;;;;;;;14.33;4.30;;;;;;;;;;5013164;28;20194;-70
2021/04/02 04:57:54;;;;;;;15.60;4.97;;;;;;;;;;5020925;28;20192;-70
2021/04/02 05:00:22;;;;;;;11.50;4.60;;;;;;;;;;5014251;28;20772;-69
2021/04/02 05:02:48;;;;;;;15.63;5.37;;;;;;;;;;5021059;28;20683;-69
2021/04/02 05:05:28;;;;;;;14.43;4.27;;;;;;;;;;5014554;28;20533;-69
2021/04/02 05:07:56;;;;;;;15.40;4.77;;;;;;;;;;5025765;28;22386;-69
2021/04/02 05:10:22;;;;;;;15.10;4.97;;;;;;;;;;5013800;28;20178;-69
2021/04/02 05:12:49;;;;;;;12.10;4.83;;;;;;;;;;5022836;28;20194;-69
2021/04/02 05:15:16;;;;;;;16.97;5.27;;;;;;;;;;5023282;28;20229;-69
2021/04/02 05:17:42;;;;;;;18.80;5.07;;;;;;;;;;5018671;28;20661;-70
2021/04/02 05:20:09;;;;;;;13.43;5.07;;;;;;;;;;5025004;28;20237;-69
2021/04/02 05:22:34;;;;;;;19.47;4.90;;;;;;;;;;5017507;28;20721;-69
2021/04/02 05:25:00;;;;;;;16.97;5.03;;;;;;;;;;5026925;28;20259;-69
2021/04/02 05:27:26;;;;;;;14.47;5.10;;;;;;;;;;5014282;28;20658;-70
2021/04/02 05:29:52;;;;;;;20.90;6.37;;;;;;;;;;4328758;28;10000872;-70
2021/04/02 05:32:17;;;;;;;14.57;5.47;;;;;;;;;;5016487;28;20663;-70
2021/04/02 05:34:43;;;;;;;13.93;5.20;;;;;;;;;;5023272;28;20656;-69
2021/04/02 05:37:08;;;;;;;16.37;4.90;;;;;;;;;;5014320;28;20197;-69
2021/04/02 05:39:33;;;;;;;19.20;5.00;;;;;;;;;;5021945;28;20201;-70
2021/04/02 05:42:06;;;;;;;19.37;5.53;;;;;;;;;;5015128;28;20182;-69
2021/04/02 05:44:34;;;;;;;15.13;6.87;;;;;;;;;;5022581;28;21157;-70
2021/04/02 05:47:03;;;;;;;16.57;5.40;;;;;;;;;;5020477;28;20186;-70
2021/04/02 05:49:29;;;;;;;15.93;5.40;;;;;;;;;;5012967;28;20303;-70
2021/04/02 05:51:56;;;;;;;18.03;5.90;;;;;;;;;;5024404;28;20185;-70
2021/04/02 05:54:44;;;;;;;13.90;4.90;;;;;;;;;;5015467;28;20221;-69
2021/04/02 05:57:09;;;;;;;14.93;4.97;;;;;;;;;;5026053;28;20189;-69
2021/04/02 05:59:37;;;;;;;19.90;5.80;;;;;;;;;;5014147;28;20186;-69
2021/04/02 06:02:03;;;;;;;14.80;5.40;;;;;;;;;;5021848;28;20210;-69
2021/04/02 06:04:30;;;;;;;21.70;6.97;;;;;;;;;;5015199;28;20234;-69
2021/04/02 06:06:56;;;;;;;17.80;6.07;;;;;;;;;;5022651;28;20201;-69
2021/04/02 06:09:23;;;;;;;14.63;5.30;;;;;;;;;;5013140;28;20232;-69
2021/04/02 06:11:48;;;;;;;17.70;5.60;;;;;;;;;;5020578;28;20618;-69
2021/04/02 06:14:14;;;;;;;14.00;5.23;;;;;;;;;;5015357;28;20198;-69
2021/04/02 06:16:46;;;;;;;19.97;5.90;;;;;;;;;;5022528;28;20186;-69
2021/04/02 06:19:11;;;;;;;20.03;5.33;;;;;;;;;;5011145;28;20193;-69
2021/04/02 06:21:51;;;;;;;13.43;4.90;;;;;;;;;;5023302;28;20256;-69
2021/04/02 06:24:37;;;;;;;19.97;4.97;;;;;;;;;;5009738;28;20196;-69
2021/04/02 06:27:05;;;;;;;19.50;5.00;;;;;;;;;;5019990;28;20178;-68
2021/04/02 06:29:37;;;;;;;14.87;5.17;;;;;;;;;;5010893;28;20236;-69
2021/04/02 06:32:02;;;;;;;17.97;4.83;;;;;;;;;;5022250;28;20567;-69
2021/04/02 06:34:28;;;;;;;17.53;5.03;;;;;;;;;;5021179;28;20216;-69
2021/04/02 06:37:00;;;;;;;20.30;5.73;;;;;;;;;;5015249;28;22295;-69
2021/04/02 06:39:30;;;;;;;16.17;4.70;;;;;;;;;;5021241;28;20188;-69
2021/04/02 06:41:57;;;;;;;15.20;4.67;;;;;;;;;;5015784;28;20209;-69
2021/04/02 06:44:24;;;;;;;16.97;4.50;;;;;;;;;;5021823;28;20209;-69
2021/04/02 06:46:49;;;;;;;16.73;4.67;;;;;;;;;;5013959;28;20192;-69
2021/04/02 06:49:20;;;;;;;17.97;5.20;;;;;;;;;;5022683;28;20237;-69
2021/04/02 06:51:48;;;;;;;17.83;5.07;;;;;;;;;;5016032;28;20420;-69
2021/04/02 06:54:15;;;;;;;16.80;4.83;;;;;;;;;;5022038;28;20240;-69
2021/04/02 06:56:52;;;;;;;16.33;5.20;;;;;;;;;;5013421;28;20315;-69
2021/04/02 06:59:18;;;;;;;19.70;5.53;;;;;;;;;;5020350;28;20688;-69
2021/04/02 07:01:53;;;;;;;14.70;5.60;;;;;;;;;;5014313;28;20218;-69
2021/04/02 07:04:23;;;;;;;17.83;5.77;;;;;;;;;;5022117;28;20332;-69
2021/04/02 07:06:51;;;;;;;12.73;4.60;;;;;;;;;;5016920;28;20320;-69
2021/04/02 07:09:18;;;;;;;24.20;4.73;;;;;;;;;;5022953;28;20194;-69
2021/04/02 07:11:47;;;;;;;16.30;5.00;;;;;;;;;;5019116;28;20204;-69
2021/04/02 07:14:13;;;;;;;14.60;4.27;;;;;;;;;;5018715;28;20248;-69
2021/04/02 07:16:39;;;;;;;11.63;4.00;;;;;;;;;;5021790;28;20265;-69
2021/04/02 07:19:06;;;;;;;10.97;3.70;;;;;;;;;;5010634;28;20580;-69
2021/04/02 07:21:33;;;;;;;10.63;3.67;;;;;;;;;;5021860;28;20323;-69
2021/04/02 07:24:02;;;;;;;11.93;3.70;;;;;;;;;;5012929;28;20194;-69
2021/04/02 07:26:27;;;;;;;9.60;3.60;;;;;;;;;;5018959;28;20189;-69
2021/04/02 07:28:54;;;;;;;13.80;3.80;;;;;;;;;;5013494;28;20715;-69
2021/04/02 07:31:21;;;;;;;7.93;2.90;;;;;;;;;;5021229;28;20638;-70
2021/04/02 07:33:48;;;;;;;12.23;2.80;;;;;;;;;;5011981;28;20681;-69
2021/04/02 07:36:17;;;;;;;12.20;3.23;;;;;;;;;;5020381;28;20192;-70
2021/04/02 07:38:52;;;;;;;13.83;2.67;;;;;;;;;;5011666;28;20193;-70
2021/04/02 07:41:19;;;;;;;13.30;2.80;;;;;;;;;;5019696;28;20202;-70
2021/04/02 07:43:53;;;;;;;6.27;2.27;;;;;;;;;;5012532;28;20185;-70
2021/04/02 07:46:24;;;;;;;10.67;2.77;;;;;;;;;;5019131;28;20242;-70
2021/04/02 07:49:07;;;;;;;12.53;2.37;;;;;;;;;;5012484;28;20234;-69
2021/04/02 07:51:44;;;;;;;16.27;2.43;;;;;;;;;;5019762;28;20185;-68
2021/04/02 07:54:18;;;;;;;10.50;2.67;;;;;;;;;;5011395;28;20200;-69
2021/04/02 07:56:46;;;;;;;8.77;2.27;;;;;;;;;;5022921;28;20182;-69
2021/04/02 07:59:11;;;;;;;11.90;2.47;;;;;;;;;;5016133;28;20216;-69
2021/04/02 08:01:36;;;;;;;9.00;1.80;;;;;;;;;;5020490;28;20966;-69
2021/04/02 08:04:04;;;;;;;10.90;1.90;;;;;;;;;;5021410;28;20588;-69
2021/04/02 08:06:40;;;;;;;17.03;1.97;;;;;;;;;;5015068;28;21379;-69
2021/04/02 08:09:08;;;;;;;6.93;1.80;;;;;;;;;;5021355;28;20214;-69
2021/04/02 08:11:47;;;;;;;10.27;2.03;;;;;;;;;;5015304;28;20186;-69
2021/04/02 08:14:13;;;;;;;8.43;1.90;;;;;;;;;;5020595;28;20452;-70
2021/04/02 08:16:42;;;;;;;7.97;1.70;;;;;;;;;;5013374;28;20247;-70
2021/04/02 08:19:39;;;;;;;12.27;1.83;;;;;;;;;;5022544;28;20186;-70
2021/04/02 08:22:08;;;;;;;6.43;1.60;;;;;;;;;;5012929;28;20640;-69
2021/04/02 08:24:36;;;;;;;9.10;1.70;;;;;;;;;;5022143;28;20196;-69
2021/04/02 08:27:02;;;;;;;12.23;2.03;;;;;;;;;;5013295;28;20194;-70
2021/04/02 08:29:29;;;;;;;4.47;1.50;;;;;;;;;;5020141;28;20661;-70
2021/04/02 08:31:58;;;;;;;9.93;1.73;;;;;;;;;;5013253;28;20565;-69
2021/04/02 08:34:25;;;;;;;9.17;1.87;;;;;;;;;;5021115;28;20186;-69
2021/04/02 08:36:53;;;;;;;9.93;3.10;;;;;;;;;;5014067;28;20198;-70
2021/04/02 08:39:23;;;;;;;9.87;2.13;;;;;;;;;;5020054;28;20666;-69
2021/04/02 08:41:50;;;;;;;8.27;2.53;;;;;;;;;;5012612;28;20245;-69
2021/04/02 08:44:15;;;;;;;15.90;6.77;;;;;;;;;;5021115;28;20221;-69
2021/04/02 08:46:43;;;;;;;13.67;4.40;;;;;;;;;;5017113;28;20280;-70
2021/04/02 08:49:12;;;;;;;9.03;2.20;;;;;;;;;;5019148;28;20447;-70
2021/04/02 08:51:38;;;;;;;6.47;1.70;;;;;;;;;;5020893;28;20258;-70
2021/04/02 08:54:10;;;;;;;10.90;2.30;;;;;;;;;;5013619;28;20211;-69
2021/04/02 08:56:35;;;;;;;7.40;1.90;;;;;;;;;;5023898;28;20189;-69
2021/04/02 08:59:07;;;;;;;8.05;1.70;;;;;;;;;;5013140;28;20190;-70
2021/04/02 09:01:33;;;;;;;7.00;1.60;;;;;;;;;;5022047;28;20209;-70
2021/04/02 09:03:58;;;;;;;11.77;2.20;;;;;;;;;;5012256;28;20705;-70
2021/04/02 09:06:24;;;;;;;9.73;2.00;;;;;;;;;;5020839;28;20192;-70
2021/04/02 09:08:49;;;;;;;11.17;2.53;;;;;;;;;;5015767;28;20189;-70
2021/04/02 09:11:15;;;;;;;9.93;2.23;;;;;;;;;;5021120;28;20182;-69
2021/04/02 09:13:43;;;;;;;7.13;1.77;;;;;;;;;;5013954;28;20251;-70
2021/04/02 09:16:12;;;;;;;10.70;1.97;;;;;;;;;;5019810;28;20627;-70
2021/04/02 09:18:53;;;;;;;5.10;1.70;;;;;;;;;;5012522;28;22797;-70
2021/04/02 09:21:19;;;;;;;7.07;1.90;;;;;;;;;;5022317;28;20210;-70
2021/04/02 09:23:49;;;;;;;15.57;1.70;;;;;;;;;;5012866;28;20522;-70
2021/04/02 09:26:15;;;;;;;6.63;1.80;;;;;;;;;;5021466;28;20689;-70
2021/04/02 09:28:41;;;;;;;11.80;2.17;;;;;;;;;;5021383;28;20224;-69
2021/04/02 09:31:29;;;;;;;8.65;1.85;;;;;;;;;;5011732;28;20190;-69
2021/04/02 09:33:59;;;;;;;10.07;1.97;;;;;;;;;;5020967;28;20197;-69
2021/04/02 09:36:27;;;;;;;16.93;2.10;;;;;;;;;;5012071;28;20321;-70
2021/04/02 09:39:11;;;;;;;11.30;2.10;;;;;;;;;;5021653;28;20193;-70
2021/04/02 09:41:40;;;;;;;13.60;2.20;;;;;;;;;;5011878;28;20689;-70
2021/04/02 09:44:08;;;;;;;9.90;1.83;;;;;;;;;;5022092;28;20272;-71
2021/04/02 09:46:39;;;;;;;8.63;1.73;;;;;;;;;;5011696;28;20479;-70
2021/04/02 09:49:07;;;;;;;9.17;2.00;;;;;;;;;;5024231;28;20647;-69
2021/04/02 09:51:34;;;;;;;11.27;2.07;;;;;;;;;;5015899;28;20268;-69
2021/04/02 09:54:00;;;;;;;7.90;1.77;;;;;;;;;;5026265;28;20537;-69
2021/04/02 09:56:25;;;;;;;8.20;1.90;;;;;;;;;;5018834;28;20194;-69
2021/04/02 09:58:51;;;;;;;16.87;2.50;;;;;;;;;;5027201;28;20217;-69
2021/04/02 10:01:16;;;;;;;12.60;2.50;;;;;;;;;;5019420;28;20206;-70
2021/04/02 10:03:41;;;;;;;8.17;1.80;;;;;;;;;;5028014;28;20213;-70
2021/04/02 10:06:07;;;;;;;11.63;2.10;;;;;;;;;;5021806;28;20193;-70
2021/04/02 10:08:32;;;;;;;11.10;2.13;;;;;;;;;;5028874;28;20395;-68
2021/04/02 10:10:58;;;;;;;11.17;2.23;;;;;;;;;;5030050;28;20182;-69
2021/04/02 10:13:23;;;;;;;13.27;2.10;;;;;;;;;;5021316;28;20672;-69
2021/04/02 10:15:48;;;;;;;11.82;1.90;;;;;;;;;;5030363;28;20194;-69
2021/04/02 10:18:15;;;;;;;11.02;2.13;;;;;;;;;;5020042;28;20714;-69
2021/04/02 10:20:41;;;;;;;11.35;2.42;;;;;;;;;;5030636;28;20209;-69
2021/04/02 10:23:06;;;;;;;9.97;2.00;;;;;;;;;;5020719;28;20339;-70
2021/04/02 10:25:31;;;;;;;8.68;2.10;;;;;;;;;;5030434;28;20287;-70
2021/04/02 10:27:57;;;;;;;9.43;2.23;;;;;;;;;;5020949;28;20720;-70
2021/04/02 10:30:23;;;;;;;7.05;1.90;;;;;;;;;;5031197;28;20209;-70
2021/04/02 10:32:48;;;;;;;6.10;1.90;;;;;;;;;;5020641;28;20189;-70
2021/04/02 10:35:14;;;;;;;9.65;1.95;;;;;;;;;;5028807;28;20641;-69
2021/04/02 10:37:39;;;;;;;14.40;2.00;;;;;;;;;;5019058;28;20236;-69
2021/04/02 10:40:05;;;;;;;9.95;2.30;;;;;;;;;;5023149;28;20216;-69
2021/04/02 10:42:31;;;;;;;7.30;1.90;;;;;;;;;;5025422;28;20543;-68
2021/04/02 10:44:56;;;;;;;9.10;2.27;;;;;;;;;;5019751;28;20522;-69
2021/04/02 10:47:21;;;;;;;8.35;1.73;;;;;;;;;;5024795;28;20876;-69
2021/04/02 10:49:47;;;;;;;9.80;1.90;;;;;;;;;;5021719;28;20264;-69
2021/04/02 10:52:12;;;;;;;7.55;1.60;;;;;;;;;;5025888;28;20561;-69
2021/04/02 10:54:38;;;;;;;106.88;11.65;;;;;;;;;;5018026;28;20680;-69
2021/04/02 10:57:04;;;;;;;12.20;2.08;;;;;;;;;;5027378;28;20196;-69
2021/04/02 10:59:29;;;;;;;13.80;2.10;;;;;;;;;;5018614;28;20240;-69
2021/04/02 11:01:55;;;;;;;8.40;1.60;;;;;;;;;;5028055;28;20290;-69
2021/04/02 11:04:20;;;;;;;12.40;1.50;;;;;;;;;;5020728;28;20562;-69
2021/04/02 11:06:45;;;;;;;14.90;1.75;;;;;;;;;;5027341;28;20558;-69
2021/04/02 11:09:11;;;;;;;11.23;1.65;;;;;;;;;;5024409;28;20671;-69
2021/04/02 11:11:36;;;;;;;8.60;1.88;;;;;;;;;;5019295;28;20640;-69
2021/04/02 11:14:01;;;;;;;13.57;1.98;;;;;;;;;;5027162;28;20186;-69
2021/04/02 11:16:26;;;;;;;12.48;1.73;;;;;;;;;;5020728;28;20189;-70
2021/04/02 11:18:52;;;;;;;9.50;2.00;;;;;;;;;;5028877;28;20197;-70
2021/04/02 11:21:17;;;;;;;10.02;2.35;;;;;;;;;;5018440;28;20631;-70
2021/04/02 11:23:42;;;;;;;11.30;1.73;;;;;;;;;;5027985;28;20201;-70
2021/04/02 11:26:08;;;;;;;9.68;2.35;;;;;;;;;;5019128;28;20666;-70
2021/04/02 11:28:33;;;;;;;6.55;1.60;;;;;;;;;;5029284;28;20189;-70
2021/04/02 11:30:58;;;;;;;10.38;2.20;;;;;;;;;;5020954;28;20240;-70
2021/04/02 11:33:24;;;;;;;9.85;2.08;;;;;;;;;;5027949;28;20193;-70
2021/04/02 11:35:49;;;;;;;12.52;2.15;;;;;;;;;;5018380;28;20243;-70
2021/04/02 11:38:15;;;;;;;9.60;1.90;;;;;;;;;;5027382;28;20585;-70
2021/04/02 11:40:40;;;;;;;7.15;1.70;;;;;;;;;;5028898;28;20209;-70
2021/04/02 11:43:05;;;;;;;9.63;2.10;;;;;;;;;;5020011;28;20227;-70
2021/04/02 11:45:31;;;;;;;11.93;2.22;;;;;;;;;;5026377;28;20351;-70
2021/04/02 11:47:57;;;;;;;7.85;2.28;;;;;;;;;;5013110;28;20193;-70
2021/04/02 11:50:22;;;;;;;9.88;1.73;;;;;;;;;;5025462;28;20230;-70
2021/04/02 11:52:47;;;;;;;12.18;2.10;;;;;;;;;;5018828;28;20205;-70
2021/04/02 11:55:13;;;;;;;6.95;2.22;;;;;;;;;;5027366;28;20679;-70
2021/04/02 11:57:38;;;;;;;12.32;3.17;;;;;;;;;;5019742;28;20199;-71
2021/04/02 12:00:09;;;;;;;8.13;2.22;;;;;;;;;;5027164;28;20612;-70
2021/04/02 12:02:34;;;;;;;12.73;1.90;;;;;;;;;;5017393;28;20213;-70
2021/04/02 12:04:59;;;;;;;7.45;1.77;;;;;;;;;;5024769;28;20217;-70
2021/04/02 12:07:25;;;;;;;10.00;1.88;;;;;;;;;;5020051;28;20197;-69
2021/04/02 12:09:50;;;;;;;10.82;2.15;;;;;;;;;;5020051;28;20181;-70
2021/04/02 12:12:15;;;;;;;9.70;1.73;;;;;;;;;;5025434;28;20599;-70
2021/04/02 12:14:41;;;;;;;9.10;2.33;;;;;;;;;;5018326;28;20284;-70
2021/04/02 12:17:06;;;;;;;6.88;1.60;;;;;;;;;;5032197;28;20579;-69
2021/04/02 12:19:32;;;;;;;6.40;1.50;;;;;;;;;;5018572;28;20182;-69
2021/04/02 12:21:57;;;;;;;8.48;1.95;;;;;;;;;;5024269;28;20221;-69
2021/04/02 12:24:22;;;;;;;8.73;1.90;;;;;;;;;;5017493;28;20186;-70
2021/04/02 12:26:48;;;;;;;9.27;1.88;;;;;;;;;;5023555;28;20185;-70
2021/04/02 12:29:13;;;;;;;10.60;1.60;;;;;;;;;;5015022;28;20201;-69
2021/04/02 12:31:38;;;;;;;8.68;2.15;;;;;;;;;;5022285;28;21829;-69
2021/04/02 12:34:04;;;;;;;14.48;2.67;;;;;;;;;;5016031;28;20208;-70
2021/04/02 12:36:29;;;;;;;10.83;1.83;;;;;;;;;;5023623;28;20510;-70
2021/04/02 12:38:54;;;;;;;14.13;1.88;;;;;;;;;;5025298;28;20722;-70
2021/04/02 12:41:20;;;;;;;8.45;1.88;;;;;;;;;;5016122;28;20205;-70
2021/04/02 12:43:45;;;;;;;15.10;2.30;;;;;;;;;;5027482;28;20196;-70
2021/04/02 12:46:11;;;;;;;8.07;1.65;;;;;;;;;;5018033;28;20254;-69
2021/04/02 12:48:36;;;;;;;11.53;2.40;;;;;;;;;;5026864;28;20296;-70
2021/04/02 12:51:02;;;;;;;7.75;1.70;;;;;;;;;;5018430;28;20223;-69
2021/04/02 12:53:30;;;;;;;9.93;1.90;;;;;;;;;;5027283;28;20211;-69
2021/04/02 12:55:58;;;;;;;10.57;2.20;;;;;;;;;;5016052;28;20190;-70
2021/04/02 12:58:24;;;;;;;9.43;2.35;;;;;;;;;;5026593;28;20197;-71
2021/04/02 13:00:49;;;;;;;10.15;1.80;;;;;;;;;;5017779;28;20223;-70
2021/04/02 13:03:14;;;;;;;11.60;2.03;;;;;;;;;;5023066;28;20197;-70
2021/04/02 13:05:40;;;;;;;11.20;1.70;;;;;;;;;;5016700;28;20212;-69
2021/04/02 13:08:07;;;;;;;6.28;1.40;;;;;;;;;;5025444;28;20194;-69
2021/04/02 13:10:32;;;;;;;7.00;1.95;;;;;;;;;;5027054;28;20316;-70
2021/04/02 13:12:58;;;;;;;8.50;1.55;;;;;;;;;;5016327;28;20775;-70
2021/04/02 13:15:24;;;;;;;6.00;1.55;;;;;;;;;;5024859;28;20691;-70
2021/04/02 13:17:49;;;;;;;10.35;1.70;;;;;;;;;;5016937;28;20193;-69
2021/04/02 13:20:20;;;;;;;8.38;1.88;;;;;;;;;;5022780;28;20259;-69
2021/04/02 13:22:45;;;;;;;14.80;1.98;;;;;;;;;;5016722;28;20187;-70
2021/04/02 13:25:12;;;;;;;5.78;1.65;;;;;;;;;;5027282;28;20189;-70
2021/04/02 13:27:37;;;;;;;11.73;1.75;;;;;;;;;;5016968;28;20189;-69
2021/04/02 13:30:09;;;;;;;9.15;1.92;;;;;;;;;;5025578;28;20660;-69
2021/04/02 13:33:01;;;;;;;6.63;2.05;;;;;;;;;;5020093;28;20190;-70
2021/04/02 13:35:28;;;;;;;9.73;2.67;;;;;;;;;;5027117;28;20213;-69
2021/04/02 13:37:57;;;;;;;7.05;1.83;;;;;;;;;;5021408;28;20177;-69
2021/04/02 13:40:23;;;;;;;14.18;2.20;;;;;;;;;;5026688;28;20569;-69
2021/04/02 13:42:49;;;;;;;8.85;1.98;;;;;;;;;;5022577;28;20622;-69
2021/04/02 13:45:16;;;;;;;7.18;1.73;;;;;;;;;;5030136;28;20206;-69
2021/04/02 13:47:42;;;;;;;8.73;1.55;;;;;;;;;;5028576;28;20225;-70
2021/04/02 13:50:13;;;;;;;4.03;1.70;;;;;;;;;;5019572;28;20328;-70
2021/04/02 13:52:39;;;;;;;6.15;1.45;;;;;;;;;;5030444;28;20217;-70
2021/04/02 13:55:05;;;;;;;6.72;1.40;;;;;;;;;;5019110;28;20193;-69
2021/04/02 13:57:31;;;;;;;11.77;1.77;;;;;;;;;;5027749;28;20505;-70
2021/04/02 13:59:56;;;;;;;9.73;1.50;;;;;;;;;;5017367;28;20194;-69
2021/04/02 14:02:22;;;;;;;10.45;1.73;;;;;;;;;;5029586;28;20189;-71
2021/04/02 14:04:47;;;;;;;7.93;1.70;;;;;;;;;;4323712;28;10000712;-69
2021/04/02 14:07:13;;;;;;;7.30;2.08;;;;;;;;;;5027581;28;20189;-70
2021/04/02 14:09:39;;;;;;;9.27;1.58;;;;;;;;;;5016398;28;20277;-70
2021/04/02 14:12:05;;;;;;;9.82;2.08;;;;;;;;;;5024259;28;20755;-70
2021/04/02 14:14:31;;;;;;;14.07;2.22;;;;;;;;;;5015911;28;20189;-69
2021/04/02 14:16:56;;;;;;;12.05;1.90;;;;;;;;;;5025425;28;20691;-69
2021/04/02 14:19:22;;;;;;;8.95;1.75;;;;;;;;;;5026912;28;20194;-70
2021/04/02 14:21:49;;;;;;;8.55;1.75;;;;;;;;;;5013743;28;20723;-70
2021/04/02 14:24:15;;;;;;;8.85;1.38;;;;;;;;;;5022406;28;20806;-70
2021/04/02 14:26:41;;;;;;;6.05;1.55;;;;;;;;;;5011240;28;20508;-70
2021/04/02 14:29:06;;;;;;;7.28;1.60;;;;;;;;;;5021033;28;20195;-70
2021/04/02 14:31:32;;;;;;;9.17;1.90;;;;;;;;;;5014330;28;20198;-69
2021/04/02 14:33:57;;;;;;;7.63;1.70;;;;;;;;;;5021857;28;20669;-69
2021/04/02 14:36:23;;;;;;;8.52;1.60;;;;;;;;;;5012975;28;20250;-70